sensor_id;sensor_type;location;lat;lon;timestamp;P1;durP1;ratioP1;P2;durP2;ratioP2
67272;SDS011;54190;49.770;9.250;2023-06-14T00:00:42;7.90;;;6.00;;
67272;SDS011;54190;49.770;9.250;2023-06-14T00:03:08;8.40;;;6.40;;
67272;SDS011;54190;49.770;9.250;2023-06-14T00:05:35;10.27;;;6.70;;
67272;SDS011;54190;49.770;9.250;2023-06-14T00:08:08;9.90;;;6.40;;
67272;SDS011;54190;49.770;9.250;2023-06-14T00:10:35;7.50;;;5.90;;
67272;SDS011;54190;49.770;9.250;2023-06-14T00:13:04;7.50;;;6.27;;
67272;SDS011;54190;49.770;9.250;2023-06-14T00:15:33;7.67;;;5.80;;
67272;SDS011;54190;49.770;9.250;2023-06-14T00:17:59;8.27;;;6.07;;
67272;SDS011;54190;49.770;9.250;2023-06-14T00:20:29;8.80;;;6.17;;
67272;SDS011;54190;49.770;9.250;2023-06-14T00:22:57;10.43;;;6.30;;
67272;SDS011;54190;49.770;9.250;2023-06-14T00:25:23;6.93;;;5.90;;
67272;SDS011;54190;49.770;9.250;2023-06-14T00:27:50;12.50;;;6.30;;
67272;SDS011;54190;49.770;9.250;2023-06-14T00:30:16;9.00;;;6.00;;
67272;SDS011;54190;49.770;9.250;2023-06-14T00:32:43;13.27;;;7.10;;
67272;SDS011;54190;49.770;9.250;2023-06-14T00:35:09;6.93;;;6.20;;
67272;SDS011;54190;49.770;9.250;2023-06-14T00:37:35;8.70;;;7.00;;
67272;SDS011;54190;49.770;9.250;2023-06-14T00:40:01;11.20;;;5.93;;
67272;SDS011;54190;49.770;9.250;2023-06-14T00:42:28;7.83;;;6.53;;
67272;SDS011;54190;49.770;9.250;2023-06-14T00:44:54;8.90;;;7.00;;
67272;SDS011;54190;49.770;9.250;2023-06-14T00:47:20;7.50;;;6.50;;
67272;SDS011;54190;49.770;9.250;2023-06-14T00:49:48;9.47;;;6.50;;
67272;SDS011;54190;49.770;9.250;2023-06-14T00:52:16;11.30;;;6.67;;
67272;SDS011;54190;49.770;9.250;2023-06-14T00:54:43;9.10;;;6.13;;
67272;SDS011;54190;49.770;9.250;2023-06-14T00:57:09;9.13;;;6.33;;
67272;SDS011;54190;49.770;9.250;2023-06-14T00:59:46;7.63;;;6.33;;
67272;SDS011;54190;49.770;9.250;2023-06-14T01:02:13;8.30;;;7.23;;
67272;SDS011;54190;49.770;9.250;2023-06-14T01:04:43;15.90;;;6.10;;
67272;SDS011;54190;49.770;9.250;2023-06-14T01:15:06;8.30;;;6.67;;
67272;SDS011;54190;49.770;9.250;2023-06-14T01:17:32;8.67;;;6.17;;
67272;SDS011;54190;49.770;9.250;2023-06-14T01:20:01;9.33;;;6.80;;
67272;SDS011;54190;49.770;9.250;2023-06-14T01:22:28;10.30;;;7.43;;
67272;SDS011;54190;49.770;9.250;2023-06-14T01:24:54;10.13;;;6.60;;
67272;SDS011;54190;49.770;9.250;2023-06-14T01:27:23;13.70;;;6.93;;
67272;SDS011;54190;49.770;9.250;2023-06-14T01:29:53;7.60;;;6.53;;
67272;SDS011;54190;49.770;9.250;2023-06-14T01:32:22;9.63;;;6.50;;
67272;SDS011;54190;49.770;9.250;2023-06-14T01:34:50;8.30;;;6.17;;
67272;SDS011;54190;49.770;9.250;2023-06-14T01:37:16;7.87;;;6.40;;
67272;SDS011;54190;49.770;9.250;2023-06-14T01:39:43;9.90;;;6.43;;
67272;SDS011;54190;49.770;9.250;2023-06-14T01:42:10;9.57;;;7.30;;
67272;SDS011;54190;49.770;9.250;2023-06-14T01:44:40;8.70;;;6.70;;
67272;SDS011;54190;49.770;9.250;2023-06-14T01:47:07;9.40;;;8.00;;
67272;SDS011;54190;49.770;9.250;2023-06-14T01:49:34;8.90;;;7.83;;
67272;SDS011;54190;49.770;9.250;2023-06-14T01:52:00;10.10;;;7.97;;
67272;SDS011;54190;49.770;9.250;2023-06-14T01:54:26;9.90;;;7.30;;
67272;SDS011;54190;49.770;9.250;2023-06-14T01:56:52;14.93;;;7.50;;
67272;SDS011;54190;49.770;9.250;2023-06-14T01:59:18;11.80;;;7.70;;
67272;SDS011;54190;49.770;9.250;2023-06-14T02:01:44;10.97;;;7.40;;
67272;SDS011;54190;49.770;9.250;2023-06-14T02:04:11;9.87;;;7.67;;
67272;SDS011;54190;49.770;9.250;2023-06-14T02:06:37;10.93;;;7.57;;
67272;SDS011;54190;49.770;9.250;2023-06-14T02:09:03;13.63;;;7.77;;
67272;SDS011;54190;49.770;9.250;2023-06-14T02:11:29;9.30;;;7.20;;
67272;SDS011;54190;49.770;9.250;2023-06-14T02:13:55;8.80;;;7.50;;
67272;SDS011;54190;49.770;9.250;2023-06-14T02:16:21;11.40;;;8.10;;
67272;SDS011;54190;49.770;9.250;2023-06-14T02:18:47;10.00;;;7.20;;
67272;SDS011;54190;49.770;9.250;2023-06-14T02:21:13;7.97;;;7.07;;
67272;SDS011;54190;49.770;9.250;2023-06-14T02:23:39;11.80;;;8.57;;
67272;SDS011;54190;49.770;9.250;2023-06-14T02:26:05;8.47;;;7.10;;
67272;SDS011;54190;49.770;9.250;2023-06-14T02:28:33;11.27;;;8.00;;
67272;SDS011;54190;49.770;9.250;2023-06-14T02:31:00;8.90;;;7.73;;
67272;SDS011;54190;49.770;9.250;2023-06-14T02:33:26;10.60;;;8.17;;
67272;SDS011;54190;49.770;9.250;2023-06-14T02:35:52;11.90;;;8.53;;
67272;SDS011;54190;49.770;9.250;2023-06-14T02:38:18;9.40;;;7.73;;
67272;SDS011;54190;49.770;9.250;2023-06-14T02:40:43;11.33;;;6.97;;
67272;SDS011;54190;49.770;9.250;2023-06-14T02:43:09;11.60;;;8.20;;
67272;SDS011;54190;49.770;9.250;2023-06-14T02:45:35;9.60;;;8.30;;
67272;SDS011;54190;49.770;9.250;2023-06-14T02:48:00;12.10;;;8.07;;
67272;SDS011;54190;49.770;9.250;2023-06-14T02:50:26;11.83;;;8.83;;
67272;SDS011;54190;49.770;9.250;2023-06-14T02:52:53;11.20;;;8.27;;
67272;SDS011;54190;49.770;9.250;2023-06-14T02:55:21;12.60;;;8.77;;
67272;SDS011;54190;49.770;9.250;2023-06-14T02:57:47;12.80;;;8.30;;
67272;SDS011;54190;49.770;9.250;2023-06-14T03:00:13;14.13;;;8.80;;
67272;SDS011;54190;49.770;9.250;2023-06-14T03:02:40;9.10;;;7.70;;
67272;SDS011;54190;49.770;9.250;2023-06-14T03:05:07;11.43;;;8.80;;
67272;SDS011;54190;49.770;9.250;2023-06-14T03:07:34;11.60;;;8.37;;
67272;SDS011;54190;49.770;9.250;2023-06-14T03:10:02;12.83;;;7.97;;
67272;SDS011;54190;49.770;9.250;2023-06-14T03:12:29;10.93;;;8.17;;
67272;SDS011;54190;49.770;9.250;2023-06-14T03:14:55;10.27;;;8.20;;
67272;SDS011;54190;49.770;9.250;2023-06-14T03:17:22;14.97;;;8.57;;
67272;SDS011;54190;49.770;9.250;2023-06-14T03:19:49;15.90;;;8.10;;
67272;SDS011;54190;49.770;9.250;2023-06-14T03:22:15;11.37;;;8.63;;
67272;SDS011;54190;49.770;9.250;2023-06-14T03:24:42;10.13;;;8.13;;
67272;SDS011;54190;49.770;9.250;2023-06-14T03:27:12;11.77;;;8.10;;
67272;SDS011;54190;49.770;9.250;2023-06-14T03:29:41;9.97;;;8.23;;
67272;SDS011;54190;49.770;9.250;2023-06-14T03:32:07;10.70;;;7.77;;
67272;SDS011;54190;49.770;9.250;2023-06-14T03:34:39;12.57;;;8.10;;
67272;SDS011;54190;49.770;9.250;2023-06-14T03:37:08;9.60;;;8.10;;
67272;SDS011;54190;49.770;9.250;2023-06-14T03:39:34;9.83;;;7.67;;
67272;SDS011;54190;49.770;9.250;2023-06-14T03:42:00;13.20;;;7.57;;
67272;SDS011;54190;49.770;9.250;2023-06-14T03:44:27;10.37;;;7.47;;
67272;SDS011;54190;49.770;9.250;2023-06-14T03:46:53;9.70;;;8.13;;
67272;SDS011;54190;49.770;9.250;2023-06-14T03:49:18;10.23;;;7.60;;
67272;SDS011;54190;49.770;9.250;2023-06-14T03:51:45;10.40;;;7.73;;
67272;SDS011;54190;49.770;9.250;2023-06-14T03:54:11;8.73;;;7.50;;
67272;SDS011;54190;49.770;9.250;2023-06-14T03:56:37;9.63;;;7.77;;
67272;SDS011;54190;49.770;9.250;2023-06-14T03:59:03;10.20;;;7.93;;
67272;SDS011;54190;49.770;9.250;2023-06-14T04:01:29;10.07;;;7.67;;
67272;SDS011;54190;49.770;9.250;2023-06-14T04:03:57;9.63;;;8.10;;
67272;SDS011;54190;49.770;9.250;2023-06-14T04:06:24;8.80;;;7.90;;
67272;SDS011;54190;49.770;9.250;2023-06-14T04:08:57;9.77;;;8.00;;
67272;SDS011;54190;49.770;9.250;2023-06-14T04:11:27;9.80;;;7.70;;
67272;SDS011;54190;49.770;9.250;2023-06-14T04:13:53;10.13;;;8.07;;
67272;SDS011;54190;49.770;9.250;2023-06-14T04:16:19;10.53;;;8.00;;
67272;SDS011;54190;49.770;9.250;2023-06-14T04:18:45;9.43;;;7.40;;
67272;SDS011;54190;49.770;9.250;2023-06-14T04:21:11;13.33;;;8.17;;
67272;SDS011;54190;49.770;9.250;2023-06-14T04:23:37;19.73;;;8.47;;
67272;SDS011;54190;49.770;9.250;2023-06-14T04:26:03;9.40;;;8.37;;
67272;SDS011;54190;49.770;9.250;2023-06-14T04:28:29;14.77;;;8.60;;
67272;SDS011;54190;49.770;9.250;2023-06-14T04:30:57;11.60;;;8.57;;
67272;SDS011;54190;49.770;9.250;2023-06-14T04:33:28;10.77;;;8.40;;
67272;SDS011;54190;49.770;9.250;2023-06-14T04:35:53;11.20;;;9.17;;
67272;SDS011;54190;49.770;9.250;2023-06-14T04:38:21;9.63;;;8.30;;
67272;SDS011;54190;49.770;9.250;2023-06-14T04:40:51;10.27;;;8.87;;
67272;SDS011;54190;49.770;9.250;2023-06-14T04:43:19;11.50;;;8.27;;
67272;SDS011;54190;49.770;9.250;2023-06-14T04:45:52;9.90;;;7.80;;
67272;SDS011;54190;49.770;9.250;2023-06-14T04:48:20;10.73;;;8.27;;
67272;SDS011;54190;49.770;9.250;2023-06-14T04:50:48;9.73;;;7.80;;
67272;SDS011;54190;49.770;9.250;2023-06-14T04:53:18;10.33;;;7.90;;
67272;SDS011;54190;49.770;9.250;2023-06-14T04:55:47;10.60;;;8.20;;
67272;SDS011;54190;49.770;9.250;2023-06-14T04:58:13;10.07;;;7.60;;
67272;SDS011;54190;49.770;9.250;2023-06-14T05:00:39;9.00;;;7.80;;
67272;SDS011;54190;49.770;9.250;2023-06-14T05:03:04;10.83;;;8.57;;
67272;SDS011;54190;49.770;9.250;2023-06-14T05:05:31;11.07;;;8.10;;
67272;SDS011;54190;49.770;9.250;2023-06-14T05:07:58;15.23;;;8.17;;
67272;SDS011;54190;49.770;9.250;2023-06-14T05:10:24;10.33;;;8.10;;
67272;SDS011;54190;49.770;9.250;2023-06-14T05:12:50;13.03;;;7.80;;
67272;SDS011;54190;49.770;9.250;2023-06-14T05:15:18;14.23;;;8.60;;
67272;SDS011;54190;49.770;9.250;2023-06-14T05:17:45;8.33;;;7.50;;
67272;SDS011;54190;49.770;9.250;2023-06-14T05:20:18;20.73;;;8.83;;
67272;SDS011;54190;49.770;9.250;2023-06-14T05:22:43;19.40;;;8.90;;
67272;SDS011;54190;49.770;9.250;2023-06-14T05:25:09;14.33;;;8.30;;
67272;SDS011;54190;49.770;9.250;2023-06-14T05:27:35;12.60;;;8.30;;
67272;SDS011;54190;49.770;9.250;2023-06-14T05:30:02;18.13;;;7.87;;
67272;SDS011;54190;49.770;9.250;2023-06-14T05:32:29;11.23;;;7.70;;
67272;SDS011;54190;49.770;9.250;2023-06-14T05:34:55;11.50;;;7.33;;
67272;SDS011;54190;49.770;9.250;2023-06-14T05:37:20;8.77;;;7.60;;
67272;SDS011;54190;49.770;9.250;2023-06-14T05:39:46;7.87;;;6.60;;
67272;SDS011;54190;49.770;9.250;2023-06-14T05:42:11;9.20;;;6.70;;
67272;SDS011;54190;49.770;9.250;2023-06-14T05:44:37;9.37;;;6.60;;
67272;SDS011;54190;49.770;9.250;2023-06-14T05:47:03;13.37;;;6.17;;
67272;SDS011;54190;49.770;9.250;2023-06-14T05:49:29;7.57;;;6.20;;
67272;SDS011;54190;49.770;9.250;2023-06-14T05:51:55;9.60;;;6.17;;
67272;SDS011;54190;49.770;9.250;2023-06-14T05:54:20;8.43;;;6.33;;
67272;SDS011;54190;49.770;9.250;2023-06-14T05:56:46;9.20;;;6.27;;
67272;SDS011;54190;49.770;9.250;2023-06-14T05:59:11;13.77;;;6.60;;
67272;SDS011;54190;49.770;9.250;2023-06-14T06:01:37;7.90;;;6.10;;
67272;SDS011;54190;49.770;9.250;2023-06-14T06:04:05;8.47;;;6.47;;
67272;SDS011;54190;49.770;9.250;2023-06-14T06:06:31;10.40;;;6.77;;
67272;SDS011;54190;49.770;9.250;2023-06-14T06:08:57;15.00;;;6.57;;
67272;SDS011;54190;49.770;9.250;2023-06-14T06:11:23;8.37;;;6.20;;
67272;SDS011;54190;49.770;9.250;2023-06-14T06:13:49;7.27;;;5.80;;
67272;SDS011;54190;49.770;9.250;2023-06-14T06:16:15;10.20;;;6.00;;
67272;SDS011;54190;49.770;9.250;2023-06-14T06:18:40;6.60;;;5.70;;
67272;SDS011;54190;49.770;9.250;2023-06-14T06:21:06;11.90;;;6.50;;
67272;SDS011;54190;49.770;9.250;2023-06-14T06:23:32;7.97;;;6.10;;
67272;SDS011;54190;49.770;9.250;2023-06-14T06:25:57;8.63;;;6.00;;
67272;SDS011;54190;49.770;9.250;2023-06-14T06:28:23;9.30;;;6.20;;
67272;SDS011;54190;49.770;9.250;2023-06-14T06:30:48;11.63;;;5.90;;
67272;SDS011;54190;49.770;9.250;2023-06-14T06:33:15;7.60;;;6.43;;
67272;SDS011;54190;49.770;9.250;2023-06-14T06:35:41;8.53;;;6.53;;
67272;SDS011;54190;49.770;9.250;2023-06-14T06:38:07;9.80;;;5.90;;
67272;SDS011;54190;49.770;9.250;2023-06-14T06:40:33;6.03;;;5.20;;
67272;SDS011;54190;49.770;9.250;2023-06-14T06:42:59;9.13;;;6.23;;
67272;SDS011;54190;49.770;9.250;2023-06-14T06:45:26;10.00;;;6.20;;
67272;SDS011;54190;49.770;9.250;2023-06-14T06:47:52;11.80;;;5.40;;
67272;SDS011;54190;49.770;9.250;2023-06-14T06:50:17;9.57;;;5.70;;
67272;SDS011;54190;49.770;9.250;2023-06-14T06:52:43;11.93;;;5.90;;
67272;SDS011;54190;49.770;9.250;2023-06-14T06:55:10;9.63;;;5.97;;
67272;SDS011;54190;49.770;9.250;2023-06-14T06:57:36;8.00;;;5.97;;
67272;SDS011;54190;49.770;9.250;2023-06-14T07:00:02;7.23;;;6.30;;
67272;SDS011;54190;49.770;9.250;2023-06-14T07:02:31;7.27;;;6.00;;
67272;SDS011;54190;49.770;9.250;2023-06-14T07:04:56;9.67;;;6.03;;
67272;SDS011;54190;49.770;9.250;2023-06-14T07:07:22;9.43;;;6.40;;
67272;SDS011;54190;49.770;9.250;2023-06-14T07:09:47;9.60;;;5.83;;
67272;SDS011;54190;49.770;9.250;2023-06-14T07:12:13;8.77;;;6.23;;
67272;SDS011;54190;49.770;9.250;2023-06-14T07:14:39;13.30;;;6.23;;
67272;SDS011;54190;49.770;9.250;2023-06-14T07:17:05;8.50;;;6.20;;
67272;SDS011;54190;49.770;9.250;2023-06-14T07:19:31;7.33;;;6.07;;
67272;SDS011;54190;49.770;9.250;2023-06-14T07:21:58;9.20;;;6.70;;
67272;SDS011;54190;49.770;9.250;2023-06-14T07:24:23;14.73;;;6.10;;
67272;SDS011;54190;49.770;9.250;2023-06-14T07:26:49;8.73;;;6.13;;
67272;SDS011;54190;49.770;9.250;2023-06-14T07:29:15;11.07;;;6.57;;
67272;SDS011;54190;49.770;9.250;2023-06-14T07:31:41;7.90;;;6.20;;
67272;SDS011;54190;49.770;9.250;2023-06-14T07:34:07;8.30;;;6.00;;
67272;SDS011;54190;49.770;9.250;2023-06-14T07:36:33;14.10;;;6.27;;
67272;SDS011;54190;49.770;9.250;2023-06-14T07:38:59;7.93;;;5.70;;
67272;SDS011;54190;49.770;9.250;2023-06-14T07:41:24;8.10;;;5.80;;
67272;SDS011;54190;49.770;9.250;2023-06-14T07:43:50;9.13;;;5.63;;
67272;SDS011;54190;49.770;9.250;2023-06-14T07:46:16;13.93;;;6.07;;
67272;SDS011;54190;49.770;9.250;2023-06-14T07:48:42;9.07;;;5.87;;
67272;SDS011;54190;49.770;9.250;2023-06-14T07:51:08;10.13;;;6.43;;
67272;SDS011;54190;49.770;9.250;2023-06-14T07:53:33;10.20;;;5.83;;
67272;SDS011;54190;49.770;9.250;2023-06-14T07:55:59;9.43;;;5.57;;
67272;SDS011;54190;49.770;9.250;2023-06-14T07:58:25;8.53;;;6.43;;
67272;SDS011;54190;49.770;9.250;2023-06-14T08:00:51;6.90;;;6.20;;
67272;SDS011;54190;49.770;9.250;2023-06-14T08:03:16;8.30;;;6.10;;
67272;SDS011;54190;49.770;9.250;2023-06-14T08:05:43;6.23;;;5.60;;
67272;SDS011;54190;49.770;9.250;2023-06-14T08:08:09;11.80;;;6.80;;
67272;SDS011;54190;49.770;9.250;2023-06-14T08:10:34;8.90;;;6.20;;
67272;SDS011;54190;49.770;9.250;2023-06-14T08:13:00;8.63;;;6.40;;
67272;SDS011;54190;49.770;9.250;2023-06-14T08:15:26;9.10;;;6.40;;
67272;SDS011;54190;49.770;9.250;2023-06-14T08:17:51;7.33;;;6.17;;
67272;SDS011;54190;49.770;9.250;2023-06-14T08:20:17;8.77;;;5.93;;
67272;SDS011;54190;49.770;9.250;2023-06-14T08:22:43;7.33;;;6.43;;
67272;SDS011;54190;49.770;9.250;2023-06-14T08:25:08;9.00;;;6.30;;
67272;SDS011;54190;49.770;9.250;2023-06-14T08:27:35;6.20;;;5.60;;
67272;SDS011;54190;49.770;9.250;2023-06-14T08:30:02;8.93;;;6.33;;
67272;SDS011;54190;49.770;9.250;2023-06-14T08:32:28;6.47;;;5.77;;
67272;SDS011;54190;49.770;9.250;2023-06-14T08:34:54;11.80;;;5.90;;
67272;SDS011;54190;49.770;9.250;2023-06-14T08:37:19;7.50;;;5.70;;
67272;SDS011;54190;49.770;9.250;2023-06-14T08:39:45;9.50;;;5.80;;
67272;SDS011;54190;49.770;9.250;2023-06-14T08:42:11;7.03;;;5.60;;
67272;SDS011;54190;49.770;9.250;2023-06-14T08:44:39;8.83;;;5.90;;
67272;SDS011;54190;49.770;9.250;2023-06-14T08:47:05;7.50;;;5.97;;
67272;SDS011;54190;49.770;9.250;2023-06-14T08:49:32;7.00;;;6.10;;
67272;SDS011;54190;49.770;9.250;2023-06-14T08:51:58;9.50;;;4.90;;
67272;SDS011;54190;49.770;9.250;2023-06-14T08:54:26;8.50;;;6.20;;
67272;SDS011;54190;49.770;9.250;2023-06-14T08:56:55;11.60;;;6.20;;
67272;SDS011;54190;49.770;9.250;2023-06-14T08:59:27;8.40;;;5.67;;
67272;SDS011;54190;49.770;9.250;2023-06-14T09:01:53;6.70;;;5.90;;
67272;SDS011;54190;49.770;9.250;2023-06-14T09:04:20;9.70;;;6.10;;
67272;SDS011;54190;49.770;9.250;2023-06-14T09:06:54;9.13;;;5.57;;
67272;SDS011;54190;49.770;9.250;2023-06-14T09:09:20;7.33;;;5.00;;
67272;SDS011;54190;49.770;9.250;2023-06-14T09:11:49;7.73;;;5.33;;
67272;SDS011;54190;49.770;9.250;2023-06-14T09:14:15;7.20;;;5.60;;
67272;SDS011;54190;49.770;9.250;2023-06-14T09:16:41;10.70;;;5.40;;
67272;SDS011;54190;49.770;9.250;2023-06-14T09:19:06;8.17;;;5.80;;
67272;SDS011;54190;49.770;9.250;2023-06-14T09:21:35;6.60;;;5.30;;
67272;SDS011;54190;49.770;9.250;2023-06-14T09:24:02;8.83;;;5.93;;
67272;SDS011;54190;49.770;9.250;2023-06-14T09:26:29;6.80;;;5.53;;
67272;SDS011;54190;49.770;9.250;2023-06-14T09:28:55;7.40;;;5.47;;
67272;SDS011;54190;49.770;9.250;2023-06-14T09:31:21;7.93;;;5.60;;
67272;SDS011;54190;49.770;9.250;2023-06-14T09:33:49;8.60;;;4.93;;
67272;SDS011;54190;49.770;9.250;2023-06-14T09:36:25;9.13;;;5.30;;
67272;SDS011;54190;49.770;9.250;2023-06-14T09:38:51;7.50;;;5.13;;
67272;SDS011;54190;49.770;9.250;2023-06-14T09:41:37;6.07;;;5.13;;
67272;SDS011;54190;49.770;9.250;2023-06-14T09:44:08;7.77;;;5.13;;
67272;SDS011;54190;49.770;9.250;2023-06-14T09:46:38;8.40;;;5.27;;
67272;SDS011;54190;49.770;9.250;2023-06-14T09:49:04;6.97;;;5.63;;
67272;SDS011;54190;49.770;9.250;2023-06-14T09:51:30;6.13;;;4.90;;
67272;SDS011;54190;49.770;9.250;2023-06-14T09:54:00;6.07;;;5.23;;
67272;SDS011;54190;49.770;9.250;2023-06-14T09:56:41;5.27;;;4.40;;
67272;SDS011;54190;49.770;9.250;2023-06-14T09:59:09;7.33;;;5.20;;
67272;SDS011;54190;49.770;9.250;2023-06-14T10:01:41;8.40;;;5.33;;
67272;SDS011;54190;49.770;9.250;2023-06-14T10:04:07;7.20;;;4.80;;
67272;SDS011;54190;49.770;9.250;2023-06-14T10:06:43;6.90;;;5.00;;
67272;SDS011;54190;49.770;9.250;2023-06-14T10:09:11;9.00;;;4.70;;
67272;SDS011;54190;49.770;9.250;2023-06-14T10:11:37;7.73;;;4.93;;
67272;SDS011;54190;49.770;9.250;2023-06-14T10:14:10;5.40;;;4.90;;
67272;SDS011;54190;49.770;9.250;2023-06-14T10:16:57;5.10;;;4.60;;
67272;SDS011;54190;49.770;9.250;2023-06-14T10:19:30;4.93;;;4.43;;
67272;SDS011;54190;49.770;9.250;2023-06-14T10:22:19;6.10;;;4.40;;
67272;SDS011;54190;49.770;9.250;2023-06-14T10:24:51;6.80;;;4.53;;
67272;SDS011;54190;49.770;9.250;2023-06-14T10:27:16;5.30;;;4.40;;
67272;SDS011;54190;49.770;9.250;2023-06-14T10:32:21;5.40;;;4.53;;
67272;SDS011;54190;49.770;9.250;2023-06-14T10:34:58;14.47;;;4.50;;
67272;SDS011;54190;49.770;9.250;2023-06-14T10:37:26;4.90;;;4.40;;
67272;SDS011;54190;49.770;9.250;2023-06-14T10:39:51;6.87;;;4.77;;
67272;SDS011;54190;49.770;9.250;2023-06-14T10:42:18;6.40;;;4.77;;
67272;SDS011;54190;49.770;9.250;2023-06-14T10:44:45;6.70;;;3.70;;
67272;SDS011;54190;49.770;9.250;2023-06-14T10:47:33;5.23;;;4.73;;
67272;SDS011;54190;49.770;9.250;2023-06-14T10:50:07;6.63;;;3.67;;
67272;SDS011;54190;49.770;9.250;2023-06-14T10:52:37;6.70;;;4.40;;
67272;SDS011;54190;49.770;9.250;2023-06-14T10:55:08;5.73;;;4.53;;
67272;SDS011;54190;49.770;9.250;2023-06-14T10:57:43;6.50;;;4.40;;
67272;SDS011;54190;49.770;9.250;2023-06-14T11:00:24;6.40;;;4.90;;
67272;SDS011;54190;49.770;9.250;2023-06-14T11:02:52;6.40;;;4.60;;
67272;SDS011;54190;49.770;9.250;2023-06-14T11:10:50;7.70;;;4.90;;
67272;SDS011;54190;49.770;9.250;2023-06-14T11:13:19;7.93;;;4.90;;
67272;SDS011;54190;49.770;9.250;2023-06-14T11:15:45;5.93;;;4.77;;
67272;SDS011;54190;49.770;9.250;2023-06-14T11:18:13;4.97;;;4.40;;
67272;SDS011;54190;49.770;9.250;2023-06-14T11:20:39;6.23;;;5.10;;
67272;SDS011;54190;49.770;9.250;2023-06-14T11:23:05;4.63;;;4.23;;
67272;SDS011;54190;49.770;9.250;2023-06-14T11:25:31;5.50;;;4.70;;
67272;SDS011;54190;49.770;9.250;2023-06-14T11:27:57;6.30;;;4.90;;
67272;SDS011;54190;49.770;9.250;2023-06-14T11:30:26;11.40;;;5.70;;
67272;SDS011;54190;49.770;9.250;2023-06-14T11:32:52;17.83;;;4.80;;
67272;SDS011;54190;49.770;9.250;2023-06-14T11:35:19;6.07;;;4.90;;
67272;SDS011;54190;49.770;9.250;2023-06-14T11:37:48;6.33;;;4.47;;
67272;SDS011;54190;49.770;9.250;2023-06-14T11:40:17;6.10;;;4.67;;
67272;SDS011;54190;49.770;9.250;2023-06-14T11:42:42;7.83;;;4.77;;
67272;SDS011;54190;49.770;9.250;2023-06-14T11:45:09;6.80;;;4.70;;
67272;SDS011;54190;49.770;9.250;2023-06-14T11:47:36;8.10;;;5.00;;
67272;SDS011;54190;49.770;9.250;2023-06-14T11:50:03;6.00;;;4.70;;
67272;SDS011;54190;49.770;9.250;2023-06-14T11:52:31;6.80;;;4.50;;
67272;SDS011;54190;49.770;9.250;2023-06-14T11:54:57;9.13;;;4.27;;
67272;SDS011;54190;49.770;9.250;2023-06-14T11:57:24;8.00;;;4.70;;
67272;SDS011;54190;49.770;9.250;2023-06-14T12:04:10;5.37;;;4.67;;
67272;SDS011;54190;49.770;9.250;2023-06-14T12:06:35;7.70;;;5.00;;
67272;SDS011;54190;49.770;9.250;2023-06-14T12:09:04;5.20;;;4.70;;
67272;SDS011;54190;49.770;9.250;2023-06-14T12:11:33;6.70;;;4.43;;
67272;SDS011;54190;49.770;9.250;2023-06-14T12:14:05;6.10;;;4.93;;
67272;SDS011;54190;49.770;9.250;2023-06-14T12:16:34;6.90;;;4.77;;
67272;SDS011;54190;49.770;9.250;2023-06-14T12:19:12;4.70;;;4.10;;
67272;SDS011;54190;49.770;9.250;2023-06-14T12:21:39;6.30;;;4.87;;
67272;SDS011;54190;49.770;9.250;2023-06-14T12:24:06;5.60;;;4.37;;
67272;SDS011;54190;49.770;9.250;2023-06-14T12:26:32;9.07;;;4.67;;
67272;SDS011;54190;49.770;9.250;2023-06-14T12:28:58;7.00;;;4.90;;
67272;SDS011;54190;49.770;9.250;2023-06-14T12:31:24;9.23;;;4.40;;
67272;SDS011;54190;49.770;9.250;2023-06-14T12:33:51;8.37;;;4.37;;
67272;SDS011;54190;49.770;9.250;2023-06-14T12:36:17;6.10;;;5.07;;
67272;SDS011;54190;49.770;9.250;2023-06-14T12:38:42;4.80;;;4.30;;
67272;SDS011;54190;49.770;9.250;2023-06-14T12:41:08;4.83;;;4.17;;
67272;SDS011;54190;49.770;9.250;2023-06-14T12:43:34;4.73;;;4.33;;
67272;SDS011;54190;49.770;9.250;2023-06-14T12:46:00;6.90;;;4.53;;
67272;SDS011;54190;49.770;9.250;2023-06-14T12:48:25;4.80;;;4.27;;
67272;SDS011;54190;49.770;9.250;2023-06-14T12:50:56;6.03;;;4.80;;
67272;SDS011;54190;49.770;9.250;2023-06-14T12:53:22;5.90;;;4.63;;
67272;SDS011;54190;49.770;9.250;2023-06-14T12:55:48;5.07;;;4.00;;
67272;SDS011;54190;49.770;9.250;2023-06-14T12:58:14;5.23;;;4.63;;
67272;SDS011;54190;49.770;9.250;2023-06-14T13:00:42;7.40;;;4.07;;
67272;SDS011;54190;49.770;9.250;2023-06-14T13:03:08;6.43;;;4.30;;
67272;SDS011;54190;49.770;9.250;2023-06-14T13:05:35;5.27;;;4.40;;
67272;SDS011;54190;49.770;9.250;2023-06-14T13:08:00;6.27;;;4.40;;
67272;SDS011;54190;49.770;9.250;2023-06-14T13:10:26;7.13;;;4.57;;
67272;SDS011;54190;49.770;9.250;2023-06-14T13:12:52;4.63;;;4.23;;
67272;SDS011;54190;49.770;9.250;2023-06-14T13:15:18;6.93;;;4.77;;
67272;SDS011;54190;49.770;9.250;2023-06-14T13:17:44;6.80;;;3.80;;
67272;SDS011;54190;49.770;9.250;2023-06-14T13:20:14;6.07;;;4.23;;
67272;SDS011;54190;49.770;9.250;2023-06-14T13:22:40;7.03;;;4.70;;
67272;SDS011;54190;49.770;9.250;2023-06-14T13:25:06;4.30;;;3.90;;
67272;SDS011;54190;49.770;9.250;2023-06-14T13:27:32;6.17;;;4.03;;
67272;SDS011;54190;49.770;9.250;2023-06-14T13:29:58;5.40;;;4.03;;
67272;SDS011;54190;49.770;9.250;2023-06-14T13:32:24;6.10;;;4.33;;
67272;SDS011;54190;49.770;9.250;2023-06-14T13:34:49;8.43;;;4.37;;
67272;SDS011;54190;49.770;9.250;2023-06-14T13:37:15;6.53;;;4.20;;
67272;SDS011;54190;49.770;9.250;2023-06-14T13:39:41;5.60;;;4.30;;
67272;SDS011;54190;49.770;9.250;2023-06-14T13:42:07;4.70;;;4.17;;
67272;SDS011;54190;49.770;9.250;2023-06-14T13:44:32;6.70;;;4.30;;
67272;SDS011;54190;49.770;9.250;2023-06-14T13:46:58;5.07;;;4.33;;
67272;SDS011;54190;49.770;9.250;2023-06-14T13:49:25;4.43;;;4.03;;
67272;SDS011;54190;49.770;9.250;2023-06-14T13:51:50;6.10;;;4.50;;
67272;SDS011;54190;49.770;9.250;2023-06-14T13:54:17;6.60;;;4.57;;
67272;SDS011;54190;49.770;9.250;2023-06-14T13:56:46;9.07;;;4.70;;
67272;SDS011;54190;49.770;9.250;2023-06-14T13:59:12;10.93;;;4.40;;
67272;SDS011;54190;49.770;9.250;2023-06-14T14:01:38;5.60;;;4.57;;
67272;SDS011;54190;49.770;9.250;2023-06-14T14:04:04;6.10;;;4.13;;
67272;SDS011;54190;49.770;9.250;2023-06-14T14:06:30;4.30;;;3.90;;
67272;SDS011;54190;49.770;9.250;2023-06-14T14:08:56;4.90;;;3.87;;
67272;SDS011;54190;49.770;9.250;2023-06-14T14:11:22;4.17;;;3.70;;
67272;SDS011;54190;49.770;9.250;2023-06-14T14:13:48;4.57;;;3.57;;
67272;SDS011;54190;49.770;9.250;2023-06-14T14:16:14;4.00;;;3.63;;
67272;SDS011;54190;49.770;9.250;2023-06-14T14:18:40;5.40;;;3.93;;
67272;SDS011;54190;49.770;9.250;2023-06-14T14:21:06;4.63;;;3.50;;
67272;SDS011;54190;49.770;9.250;2023-06-14T14:23:32;5.13;;;3.33;;
67272;SDS011;54190;49.770;9.250;2023-06-14T14:25:57;5.27;;;4.00;;
67272;SDS011;54190;49.770;9.250;2023-06-14T14:28:23;7.63;;;4.13;;
67272;SDS011;54190;49.770;9.250;2023-06-14T14:30:49;3.83;;;3.43;;
67272;SDS011;54190;49.770;9.250;2023-06-14T14:33:15;3.90;;;3.50;;
67272;SDS011;54190;49.770;9.250;2023-06-14T14:35:42;4.43;;;3.90;;
67272;SDS011;54190;49.770;9.250;2023-06-14T14:38:11;5.10;;;3.90;;
67272;SDS011;54190;49.770;9.250;2023-06-14T14:40:37;4.30;;;3.73;;
67272;SDS011;54190;49.770;9.250;2023-06-14T14:43:02;4.20;;;3.80;;
67272;SDS011;54190;49.770;9.250;2023-06-14T14:45:28;4.20;;;3.80;;
67272;SDS011;54190;49.770;9.250;2023-06-14T14:47:54;4.97;;;3.40;;
67272;SDS011;54190;49.770;9.250;2023-06-14T14:50:19;6.67;;;3.73;;
67272;SDS011;54190;49.770;9.250;2023-06-14T14:52:45;5.30;;;4.07;;
67272;SDS011;54190;49.770;9.250;2023-06-14T14:55:11;4.53;;;3.60;;
67272;SDS011;54190;49.770;9.250;2023-06-14T14:57:36;4.40;;;3.50;;
67272;SDS011;54190;49.770;9.250;2023-06-14T15:00:05;5.43;;;3.83;;
67272;SDS011;54190;49.770;9.250;2023-06-14T15:02:31;5.03;;;3.67;;